Forside
METAR-TAF:

METAR-TAF

Lufthavne :

Aktau, Kasakhstan

Breddekreds: 43-52-12N, længdekreds: 051-06E, højde: 22 m

Aktuelle vejr

Denne rapport blev lavet for 12 minutter siden, kl. 00:00 UTC
Vind 8 kt fra nordvest
Temperatur 24°C
Fugtighed 83%
Tryk 1004 hPa
Sigt 10 km eller mere
ingen skyer under 1500m og ingen cumulonimbus

METAR: UATE 170000Z 31004MPS CAVOK 24/21 Q1004 R30/0///70 NOSIG RMK QFE752/1002

Tid: 05:12 (00:12 UTC)

Vejrudsigter

Denne rapport blev lavet for 1 time og 8 minutter siden, kl. 23:04 UTC
Foreløbig gælder fra 17 på 00 UTC til 17 på 24 UTC
Vind 12 kt fra vestnordvest
Sigt 10 km eller mere
Spredte skyer i en højde af 4000 ft, Cumulonimbus.
ændring
fra 17 på 08 UTC til 17 på 10 UTC
Vind 12 kt fra nordnordvest med vindstød på up til 23 kt

TAF: UATE 162304Z 1700/1724 30006MPS 9999 SCT040CB TX33/1710Z TN24/1702Z BECMG 1708/1710 33006G12MPS

Vejrobservationer og prognoser fra mere end 4000 lufthavne (METAR og TAF).

De gule og røde prikker repræsenterer de meteorologiske stationer.

Flyt musen over at se navnet på stationen.

Så klik over at se vejr observationer og prognoser.

At skifte det kort: Klik på de grønne knapper med et sort kors for at zoome ind; på den grønne knap med en bindestreg for at zoome ud; eller på de grønne pile for tilstødende kort.


METAR-TAF: